Seavoyager — 9HUM8 — position and weather

sailwx.info

Track history (hours):
 
Tides and Currents Weather Stations Pressure Air Temp Water Temp Dewpoint Dewpoint Depression Visibility Wind Speed Wind Dir Waves Ship Positions

Seavoyager

Last reported at 2015-Apr-17 22:33 UTC. Time now 2015-May-03 23:57 UTC.
Position N 49°57' W 003°19'.
Warning: this ship's position is 16 days out of date.

Length 273 m; draft 15.3 m.

Type: Ship (hazmat cat A). MMSI: 256439000.

Date/timePositionNaut miles runAvg speedWind from/ knotsBaromVisibWave heightAir tempDewpointWater temp
2015-Apr-17 22:33N 49°57' W 003°19'39 9.9
2015-Apr-17 18:33N 50°06' W 002°19'8 7.6
2015-Apr-17 17:30N 50°08' W 002°07'10 8.9
2015-Apr-17 16:24N 50°11' W 001°52'910.8
2015-Apr-17 15:32N 50°13' W 001°38'1212.6
2015-Apr-17 14:33N 50°17' W 001°19'1514.7
2015-Apr-17 13:33N 50°21' W 000°57'3514.9
2015-Apr-17 11:11N 50°31' W 000°04'812.9
2015-Apr-17 10:33N 50°33' E 000°08'1211.9
2015-Apr-17 09:34N 50°36' E 000°26'1110.9
2015-Apr-17 08:33N 50°41' E 000°42'1111.0
2015-Apr-17 07:34N 50°47' E 000°56'1312.3
2015-Apr-17 06:32N 50°56' E 001°11'1414.5
2015-Apr-17 05:34N 51°05' E 001°28'1514.6
2015-Apr-17 04:33N 51°14' E 001°46'1312.7
2015-Apr-17 03:33N 51°25' E 001°58'1211.5
2015-Apr-17 02:33N 51°33' E 002°10'1110.8
2015-Apr-17 01:32N 51°42' E 002°20'1010.3
2015-Apr-17 00:33N 51°51' E 002°29'2210.3
2015-Apr-16 22:27N 52°12' E 002°38'1212.3
2015-Apr-16 21:27N 52°23' E 002°45'1512.4
2015-Apr-16 20:16N 52°36' E 002°58'1613.6
2015-Apr-16 19:04N 52°50' E 003°10'913.6
2015-Apr-16 18:25N 52°58' E 003°16'1413.2
2015-Apr-16 17:23N 53°11' E 003°24'1012.5
2015-Apr-16 16:33N 53°21' E 003°29'1211.9
2015-Apr-16 15:33N 53°32' E 003°35'4711.8
2015-Apr-16 11:33N 54°09' E 004°24'30111.4
2015-Apr-15 09:04N 57°52' E 010°26'611.2
2015-Apr-15 08:31N 57°50' E 010°37'9 8.8
2015-Apr-15 07:33N 57°44' E 010°48'5 1.7
2015-Apr-15 04:18N 57°41' E 010°40'0 0.0
2015-Apr-15 03:24N 57°41' E 010°40'0 0.0
2015-Apr-15 02:18N 57°41' E 010°40'0 0.0
2015-Apr-15 01:12N 57°41' E 010°40'0 0.1
2015-Apr-15 00:33N 57°41' E 010°40'0 0.1
2015-Apr-14 23:30N 57°40' E 010°40'3 3.3
2015-Apr-14 22:33N 57°42' E 010°45'1010.0
2015-Apr-14 21:33N 57°38' E 011°02'1312.8
2015-Apr-14 20:33N 57°30' E 011°21'1312.7
2015-Apr-14 19:33N 57°19' E 011°32'1312.9
2015-Apr-14 18:33N 57°07' E 011°40'1312.8
2015-Apr-14 17:32N 56°54' E 011°48'1111.3
2015-Apr-14 16:33N 56°43' E 011°52'12811.7
2015-Apr-14 05:33N 54°41' E 010°47'1211.9
2015-Apr-14 04:33N 54°36' E 011°07'1212.6
2015-Apr-14 03:33N 54°31' E 011°27'1212.5
2015-Apr-14 02:33N 54°26' E 011°46'1211.8
2015-Apr-14 01:33N 54°26' E 012°06'11 9.7
2015-Apr-14 00:24N 54°36' E 012°16'8 9.7
2015-Apr-13 23:33N 54°41' E 012°28'9 9.0
2015-Apr-13 22:33N 54°45' E 012°41'9 9.5
2015-Apr-13 21:33N 54°50' E 012°56'1312.5
2015-Apr-13 20:33N 54°54' E 013°16'1212.4
2015-Apr-13 19:33N 54°59' E 013°36'1212.2
2015-Apr-13 18:33N 55°03' E 013°56'1312.1
2015-Apr-13 17:31N 55°11' E 014°14'1513.3
2015-Apr-13 16:21N 55°23' E 014°30'1012.6
2015-Apr-13 15:33N 55°29' E 014°45'1313.0
2015-Apr-13 14:33N 55°34' E 015°05'1413.1
2015-Apr-13 13:28N 55°40' E 015°28'33811.3
2015-Apr-12 07:33N 59°36' E 023°02'1212.0
2015-Apr-12 06:33N 59°39' E 023°25'1212.1
2015-Apr-12 05:33N 59°42' E 023°48'1512.4
2015-Apr-12 04:23N 59°46' E 024°16'1012.1
2015-Apr-12 03:33N 59°48' E 024°35'1712.4
2015-Apr-12 02:12N 59°51' E 025°08'1112.3
2015-Apr-12 01:19N 59°54' E 025°29'912.2
2015-Apr-12 00:33N 59°55' E 025°48'1212.0
2015-Apr-11 23:33N 59°58' E 026°11'1212.0
2015-Apr-11 22:33N 60°01' E 026°34'1512.2
2015-Apr-11 21:21N 59°60' E 027°03'1012.0
2015-Apr-11 20:30N 60°05' E 027°21'2411.2
2015-Apr-11 18:22N 60°09' E 028°08'  
2015-Apr-09 11:13N 60°02' E 027°18'811.4
2015-Apr-09 10:33N 59°58' E 027°04'1111.3
2015-Apr-09 09:33N 59°59' E 026°42'1111.5
2015-Apr-09 08:33N 59°57' E 026°20'1211.6
2015-Apr-09 07:30N 59°53' E 025°56'3411.4
2015-Apr-09 04:33N 59°46' E 024°51'1111.5
2015-Apr-09 03:33N 59°43' E 024°29'2411.1
2015-Apr-09 01:25N 59°36' E 023°44'1011.1
2015-Apr-09 00:33N 59°33' E 023°26'  
Track history (hours):
 
Tides and Currents Weather Stations Pressure Air Temp Water Temp Dewpoint Dewpoint Depression Visibility Wind Speed Wind Dir Waves Ship Positions

Seavoyager

Last reported at 2015-Apr-17 22:33 UTC. Time now 2015-May-03 23:57 UTC.
Position N 49°57' W 003°19'.
Warning: this ship's position is 16 days out of date.

Length 273 m; draft 15.3 m.

Type: Ship (hazmat cat A). MMSI: 256439000.

Date/timePositionNaut miles runAvg speedWind from/ knotsBaromVisibWave heightAir tempDewpointWater temp
2015-Apr-17 22:33N 49°57' W 003°19'39 9.9
2015-Apr-17 18:33N 50°06' W 002°19'8 7.6
2015-Apr-17 17:30N 50°08' W 002°07'10 8.9
2015-Apr-17 16:24N 50°11' W 001°52'910.8
2015-Apr-17 15:32N 50°13' W 001°38'1212.6
2015-Apr-17 14:33N 50°17' W 001°19'1514.7
2015-Apr-17 13:33N 50°21' W 000°57'3514.9
2015-Apr-17 11:11N 50°31' W 000°04'812.9
2015-Apr-17 10:33N 50°33' E 000°08'1211.9
2015-Apr-17 09:34N 50°36' E 000°26'1110.9
2015-Apr-17 08:33N 50°41' E 000°42'1111.0
2015-Apr-17 07:34N 50°47' E 000°56'1312.3
2015-Apr-17 06:32N 50°56' E 001°11'1414.5
2015-Apr-17 05:34N 51°05' E 001°28'1514.6
2015-Apr-17 04:33N 51°14' E 001°46'1312.7
2015-Apr-17 03:33N 51°25' E 001°58'1211.5
2015-Apr-17 02:33N 51°33' E 002°10'1110.8
2015-Apr-17 01:32N 51°42' E 002°20'1010.3
2015-Apr-17 00:33N 51°51' E 002°29'2210.3
2015-Apr-16 22:27N 52°12' E 002°38'1212.3
2015-Apr-16 21:27N 52°23' E 002°45'1512.4
2015-Apr-16 20:16N 52°36' E 002°58'1613.6
2015-Apr-16 19:04N 52°50' E 003°10'913.6
2015-Apr-16 18:25N 52°58' E 003°16'1413.2
2015-Apr-16 17:23N 53°11' E 003°24'1012.5
2015-Apr-16 16:33N 53°21' E 003°29'1211.9
2015-Apr-16 15:33N 53°32' E 003°35'4711.8
2015-Apr-16 11:33N 54°09' E 004°24'30111.4
2015-Apr-15 09:04N 57°52' E 010°26'611.2
2015-Apr-15 08:31N 57°50' E 010°37'9 8.8
2015-Apr-15 07:33N 57°44' E 010°48'5 1.7
2015-Apr-15 04:18N 57°41' E 010°40'0 0.0
2015-Apr-15 03:24N 57°41' E 010°40'0 0.0
2015-Apr-15 02:18N 57°41' E 010°40'0 0.0
2015-Apr-15 01:12N 57°41' E 010°40'0 0.1
2015-Apr-15 00:33N 57°41' E 010°40'0 0.1
2015-Apr-14 23:30N 57°40' E 010°40'3 3.3
2015-Apr-14 22:33N 57°42' E 010°45'1010.0
2015-Apr-14 21:33N 57°38' E 011°02'1312.8
2015-Apr-14 20:33N 57°30' E 011°21'1312.7
2015-Apr-14 19:33N 57°19' E 011°32'1312.9
2015-Apr-14 18:33N 57°07' E 011°40'1312.8
2015-Apr-14 17:32N 56°54' E 011°48'1111.3
2015-Apr-14 16:33N 56°43' E 011°52'12811.7
2015-Apr-14 05:33N 54°41' E 010°47'1211.9
2015-Apr-14 04:33N 54°36' E 011°07'1212.6
2015-Apr-14 03:33N 54°31' E 011°27'1212.5
2015-Apr-14 02:33N 54°26' E 011°46'1211.8
2015-Apr-14 01:33N 54°26' E 012°06'11 9.7
2015-Apr-14 00:24N 54°36' E 012°16'8 9.7
2015-Apr-13 23:33N 54°41' E 012°28'9 9.0
2015-Apr-13 22:33N 54°45' E 012°41'9 9.5
2015-Apr-13 21:33N 54°50' E 012°56'1312.5
2015-Apr-13 20:33N 54°54' E 013°16'1212.4
2015-Apr-13 19:33N 54°59' E 013°36'1212.2
2015-Apr-13 18:33N 55°03' E 013°56'1312.1
2015-Apr-13 17:31N 55°11' E 014°14'1513.3
2015-Apr-13 16:21N 55°23' E 014°30'1012.6
2015-Apr-13 15:33N 55°29' E 014°45'1313.0
2015-Apr-13 14:33N 55°34' E 015°05'1413.1
2015-Apr-13 13:28N 55°40' E 015°28'33811.3
2015-Apr-12 07:33N 59°36' E 023°02'1212.0
2015-Apr-12 06:33N 59°39' E 023°25'1212.1
2015-Apr-12 05:33N 59°42' E 023°48'1512.4
2015-Apr-12 04:23N 59°46' E 024°16'1012.1
2015-Apr-12 03:33N 59°48' E 024°35'1712.4
2015-Apr-12 02:12N 59°51' E 025°08'1112.3
2015-Apr-12 01:19N 59°54' E 025°29'912.2
2015-Apr-12 00:33N 59°55' E 025°48'1212.0
2015-Apr-11 23:33N 59°58' E 026°11'1212.0
2015-Apr-11 22:33N 60°01' E 026°34'1512.2
2015-Apr-11 21:21N 59°60' E 027°03'1012.0
2015-Apr-11 20:30N 60°05' E 027°21'2411.2
2015-Apr-11 18:22N 60°09' E 028°08'  
2015-Apr-09 11:13N 60°02' E 027°18'811.4
2015-Apr-09 10:33N 59°58' E 027°04'1111.3
2015-Apr-09 09:33N 59°59' E 026°42'1111.5
2015-Apr-09 08:33N 59°57' E 026°20'1211.6
2015-Apr-09 07:30N 59°53' E 025°56'3411.4
2015-Apr-09 04:33N 59°46' E 024°51'1111.5
2015-Apr-09 03:33N 59°43' E 024°29'2411.1
2015-Apr-09 01:25N 59°36' E 023°44'1011.1
2015-Apr-09 00:33N 59°33' E 023°26'  

Dump ship's entire track history